Berutti, Argentina
Current Conditions -  °F | °C
As of 10:00 PM on Wednesday 22 Oct 2014 (Local Time) from SAOC Reporting Station
Clear Clear  
Wind Chill: 77°   Ceiling: Unl
Heat Index: 79°   Visibility: 6mi
Dew Point: 55°   Wind: 14mph
Humidity: 47%   Direction: 360°N
Pressure: 29.94"   Gusts: NA
Location:  35.86°S, 62.51°W
Report Text: SAOC 230100Z 36012KT CAVOK 25/13 Q1014
Loading
Personal Weather Stations






























Interactive Weather Map
Tropical Storm Tracking
New forecast layout! Learn more

10-Day Weather Forecast

Advertisements
Track Severe Weather on mobile